Station: Macquarie Island  

  Atmospheric Gas Attenuation - ITU Rec 676-11   ----------------- dB/100km -----------------
Date Time Temp RH % AH g/m3 Dew Point Wind Direction Speed kph Gust kph Barometer mB Rainfall Since 9am 24GHz 47GHz 76GHz 122GHz 134GHz 241GHz
10/05 06:30 0.4 74 3.69 -3.7 28 46 996.9 0.4 9.5 21.0 25.2 65.6 45.9 152.6
10/05 06:20 0.5 71 3.57 -4.1 37 44 996.6 0.4 9.3 20.8 24.7 64.3 44.3 147.0
10/05 06:10 0.8 58 2.97 -6.5 30 43 996.4 0.4 8.0 19.8 22.4 58.0 36.7 120.3
10/05 06:00 0.6 53 2.68 -7.9 32 65 996.2 0.4 7.3 19.4 21.4 55.3 33.2 108.2
10/05 05:50 0.5 56 2.81 -7.2 24 35 996 0.4 7.6 19.6 21.9 56.6 34.8 113.8
10/05 05:40 -0.4 72 3.4 -4.8 22 28 995.7 0.4 8.9 20.7 24.3 63.2 42.6 140.9
10/05 05:30 0.1 65 3.18 -5.7 30 57 995.6 0.4 8.4 20.2 23.3 60.6 39.6 130.4
10/05 05:20 -0.2 67 3.21 -5.6 41 54 995.4 0.4 8.5 20.3 23.5 61.1 40.1 132.2
10/05 05:10 -0.4 75 3.54 -4.3 35 63 995.2 0.4 9.2 20.9 24.8 64.6 44.3 147.1
10/05 05:00 -0.1 76 3.66 -3.8 35 61 995 0.4 9.5 21.0 25.2 65.6 45.7 151.9
10/05 04:50 -0.2 71 3.4 -4.8 32 41 994.7 0.4 8.9 20.6 24.2 63.0 42.4 140.5
10/05 04:40 -0.1 67 3.23 -5.5 32 43 994.6 0.4 8.5 20.3 23.5 61.2 40.2 132.8
10/05 04:30 0.5 60 3.01 -6.3 35 65 994.4 0.4 8.1 19.8 22.5 58.5 37.2 122.2
10/05 04:20 0.3 60 2.97 -6.5 43 56 994 0.4 8.0 19.8 22.4 58.2 36.8 120.8
10/05 04:10 -0.5 69 3.23 -5.5 43 52 994.1 0.4 8.6 20.4 23.6 61.4 40.4 133.4
10/05 04:00 -0.2 70 3.35 -5 41 74 994 0.4 8.8 20.5 24.0 62.4 41.8 138.2
10/05 03:50 -0.5 67 3.14 -5.9 43 74 993.5 0.4 8.4 20.2 23.3 60.5 39.3 129.3
10/05 03:40 -0.6 81 3.77 -3.4 44 63 993.1 0.4 9.7 21.2 25.7 67.0 47.3 157.6
10/05 03:30 -0.8 82 3.76 -3.5 50 89 992.7 0.4 9.7 21.2 25.7 67.0 47.3 157.5
10/05 03:20 -0.3 66 3.14 -5.9 30 46 992.8 0.4 8.4 20.1 23.2 60.3 39.1 128.9
10/05 03:10 -1 70 3.17 -5.8 26 35 992.9 0.4 8.4 20.4 23.5 61.1 39.9 131.4
10/05 03:00 -0.6 70 3.26 -5.4 37 78 992.7 0.4 8.6 20.4 23.7 61.7 40.8 134.7
10/05 02:50 -1.1 71 3.19 -5.7 48 63 992.6 0.4 8.5 20.4 23.6 61.4 40.2 132.4
10/05 02:40 -0.6 68 3.17 -5.8 50 69 992.5 0.4 8.4 20.2 23.4 60.8 39.7 130.7
10/05 02:30 -1.4 80 3.52 -4.4 32 63 992.2 0.4 9.2 21.0 24.9 65.0 44.5 147.7
10/05 02:20 -0.7 69 3.19 -5.7 39 57 992.1 0.4 8.5 20.3 23.5 61.0 39.9 131.7
10/05 02:10 -2.2 80 3.33 -5.2 32 48 992 0.4 8.8 20.8 24.4 63.6 42.5 140.5
10/05 02:00 -0.7 69 3.19 -5.7 35 67 992 0.4 8.5 20.3 23.5 61.0 39.9 131.7
10/05 01:50 -2 77 3.25 -5.5 35 44 991.8 0.4 8.6 20.7 24.1 62.6 41.4 136.5
10/05 01:40 -1 73 3.3 -5.2 50 63 991.8 0.4 8.7 20.5 24.0 62.4 41.5 137.0
10/05 01:30 -1.2 73 3.26 -5.4 37 61 991.3 0.4 8.6 20.5 23.8 62.1 41.0 135.5
10/05 01:20 -1.7 82 3.54 -4.4 35 57 991 0.4 9.3 21.0 25.1 65.3 44.9 149.0
10/05 01:10 -2.1 78 3.27 -5.4 48 74 991.1 0.4 8.7 20.7 24.1 62.9 41.6 137.5
10/05 01:00 -1.8 80 3.43 -4.8 37 59 991 0.4 9.0 20.9 24.7 64.3 43.5 144.2
10/05 00:50 -1.7 78 3.36 -5 48 78 991 0.4 8.9 20.7 24.4 63.5 42.6 140.8
10/05 00:40 -0.8 76 3.49 -4.5 52 78 990.2 0.4 9.1 20.7 24.6 64.0 43.7 145.0
10/05 00:30 -1.3 72 3.19 -5.7 37 78 990.1 0.4 8.5 20.4 23.6 61.3 40.2 132.4
10/05 00:20 -1 73 3.3 -5.2 28 37 990.2 0.4 8.7 20.5 23.9 62.2 41.4 136.8
10/05 00:10 -1.3 75 3.33 -5.1 15 28 989.5 0.4 8.8 20.5 24.1 62.7 41.9 138.6
10/05 00:00 -1.9 75 3.19 -5.7 33 61 989.6 0.4 8.5 20.5 23.7 61.8 40.5 133.4
09/05 23:50 -1.1 72 3.24 -5.5 46 70 989.8 0.4 8.6 20.4 23.7 61.7 40.7 134.3
09/05 23:40 -1.3 67 2.97 -6.6 37 57 989 0.4 8.0 20.0 22.7 59.0 37.4 122.6
09/05 23:30 -1.4 70 3.08 -6.1 46 87 989 0.4 8.2 20.2 23.1 60.2 38.8 127.6
09/05 23:20 -0.6 61 2.84 -7.2 39 50 988.5 0.4 7.7 19.6 22.0 57.2 35.4 115.9
09/05 23:10 -1.5 73 3.19 -5.7 37 65 988.9 0.4 8.5 20.4 23.6 61.4 40.2 132.6
09/05 23:00 -0.9 72 3.28 -5.3 46 78 988.6 0.4 8.7 20.3 23.7 61.8 41.0 135.6
09/05 22:50 -0.2 60 2.87 -7 39 78 988 0.4 7.8 19.5 22.0 57.1 35.6 116.5
09/05 22:40 -0.6 56 2.61 -8.3 44 57 988.3 0.4 7.2 19.3 21.2 54.9 32.6 106.0
09/05 22:30 -0.3 61 2.9 -6.9 43 76 987.8 0.4 7.8 19.6 22.1 57.5 36.0 117.9
09/05 22:20 -1.4 69 3.04 -6.3 39 54 987.6 0.4 8.2 20.1 22.9 59.7 38.2 125.7
09/05 22:10 -1.2 78 3.48 -4.5 43 54 987.3 0.4 9.1 20.7 24.5 64.0 43.7 144.8
09/05 22:00 -2.1 79 3.31 -5.2 46 78 987.3 0.4 8.8 20.6 24.2 63.0 42.0 138.8
09/05 21:50 -2.7 91 3.66 -4 46 65 987.1 0.4 9.5 21.3 25.7 67.1 46.9 155.9
09/05 21:40 -2.6 91 3.68 -3.9 57 82 987.7 0.4 9.6 21.3 25.8 67.3 47.1 156.7
09/05 21:30 -2.1 91 3.82 -3.4 32 41 987.1 0.4 9.9 21.4 26.2 68.3 48.6 162.0
09/05 21:20 -1.7 90 3.88 -3.1 52 76 985.9 0.4 10.0 21.4 26.2 68.5 49.1 163.8
09/05 21:10 -1.4 91 4.01 -2.7 57 87 986.1 0.4 10.3 21.5 26.6 69.6 50.6 169.2
09/05 21:00 -0.3 70 3.33 -5.1 50 91 986.2 0.4 8.8 20.2 23.7 61.7 41.2 136.4
09/05 20:50 -0.4 73 3.45 -4.6 32 41 985.8 0.4 9.0 20.4 24.1 62.9 42.8 141.9
09/05 20:40 -1.4 79 3.48 -4.6 33 44 985.8 0.4 9.1 20.7 24.6 64.0 43.7 145.0
09/05 20:30 -1.4 83 3.65 -3.9 30 39 985.9 0.4 9.5 20.9 25.2 65.8 45.9 152.7
09/05 20:20 -1.3 87 3.86 -3.2 50 72 984.9 0.4 9.9 21.2 26.0 67.8 48.5 161.9
09/05 20:10 -1 80 3.62 -4 37 50 985.2 0.4 9.4 20.8 24.9 65.1 45.3 150.5
09/05 20:00 -1.2 83 3.71 -3.7 50 69 984.9 0.4 9.6 20.9 25.3 66.2 46.5 154.9
09/05 19:50 -1 85 3.85 -3.2 50 70 984.7 0.4 9.9 21.1 25.8 67.5 48.2 160.8
09/05 19:40 -1.2 80 3.57 -4.2 39 65 984.5 0.4 9.3 20.7 24.8 64.7 44.7 148.5
09/05 19:30 -1.5 82 3.59 -4.2 52 85 984.6 0.4 9.3 20.8 25.0 65.2 45.1 150.0
09/05 19:20 -1.7 85 3.66 -3.9 33 50 984.4 0.4 9.5 21.0 25.3 66.1 46.1 153.5
09/05 19:10 -2 83 3.5 -4.5 48 74 984.4 0.4 9.2 20.8 24.8 64.6 44.3 146.8
09/05 19:00 -2.2 91 3.79 -3.5 57 70 984.4 0.4 9.8 21.3 26.0 67.8 48.1 160.5
09/05 18:50 -1.9 94 4 -2.7 32 39 984 0.4 10.3 21.5 26.7 69.8 50.7 169.5
09/05 18:40 -2 86 3.63 -4 52 72 983.9 0.4 9.4 21.0 25.3 65.9 45.9 152.7
09/05 18:30 -0.7 69 3.19 -5.7 46 59 983.6 0.4 8.5 20.0 23.2 60.4 39.6 130.6
09/05 18:20 -1 74 3.35 -5 24 37 983.1 0.4 8.8 20.3 23.8 62.2 41.7 138.1
09/05 18:10 -1.3 88 3.9 -3 37 46 983.2 0.4 10.0 21.2 26.1 68.1 49.0 163.5
09/05 18:00 -1.8 91 3.9 -3.1 39 46 983.2 0.4 10.0 21.3 26.2 68.6 49.3 164.5
09/05 17:50 -2.3 90 3.72 -3.7 52 74 983.8 0.4 9.7 21.2 25.7 67.1 47.3 157.3
09/05 17:40 -0.1 73 3.52 -4.3 43 67 983.1 0.4 9.2 20.3 24.2 63.2 43.4 144.1
09/05 17:30 0.8 59 3.02 -6.3 44 65 982.6 0.4 8.0 19.4 22.1 57.5 36.7 120.8
09/05 17:20 0.7 63 3.21 -5.5 65 80 981.9 0.4 8.5 19.6 22.8 59.4 39.1 129.0
09/05 17:10 0.8 62 3.18 -5.6 28 41 982.2 0.4 8.4 19.6 22.7 59.0 38.7 127.6
09/05 17:00 1.1 54 2.83 -7.1 61 78 981.9 0.4 7.6 19.0 21.3 55.4 34.3 112.3
09/05 16:50 1 55 2.86 -7 37 69 982.1 0.4 7.7 19.1 21.4 55.7 34.7 113.7
09/05 16:40 0.9 61 3.15 -5.8 39 69 982.1 0.4 8.3 19.5 22.5 58.6 38.3 126.2
09/05 16:30 0.7 67 3.41 -4.7 33 52 982 0.4 8.9 19.9 23.5 61.3 41.5 137.7
09/05 16:20 0.9 69 3.56 -4.1 44 61 981.7 0.4 9.2 20.1 24.0 62.7 43.3 143.8
09/05 16:10 0.6 81 4.1 -2.3 56 82 981.4 0.4 10.4 21.0 26.1 68.4 50.2 168.2
09/05 16:00 -0.3 78 3.71 -3.7 35 50 981.8 0.4 9.6 20.6 25.0 65.2 45.8 152.7
09/05 15:50 1.3 64 3.39 -4.7 59 89 981 0.4 8.8 19.7 23.2 60.6 40.9 135.7
09/05 15:40 0.8 72 3.69 -3.7 54 72 981 0.4 9.5 20.3 24.5 64.0 44.9 149.6
09/05 15:30 0.9 68 3.51 -4.3 32 41 981.3 0.4 9.1 20.0 23.8 62.1 42.6 141.6
09/05 15:20 1.5 58 3.12 -5.8 54 76 980.9 0.4 8.2 19.3 22.2 57.8 37.6 123.8
09/05 15:10 1.7 58 3.16 -5.7 52 72 980.8 0.4 8.3 19.3 22.3 58.0 37.9 125.2
09/05 15:00 1.3 63 3.34 -5 44 70 980.7 0.4 8.7 19.7 23.0 60.1 40.3 133.5
09/05 14:50 0.7 61 3.11 -5.9 35 48 981 0.4 8.2 19.5 22.4 58.3 37.8 124.6
09/05 14:40 1.1 71 3.71 -3.6 65 87 981.2 0.4 9.5 20.3 24.5 64.0 45.0 149.9
09/05 14:30 1.5 61 3.28 -5.2 56 76 980.9 0.4 8.6 19.5 22.8 59.4 39.5 130.6
09/05 14:20 0.7 68 3.46 -4.5 59 76 981 0.4 9.0 20.0 23.7 61.8 42.1 139.7
09/05 14:10 1.1 61 3.19 -5.6 44 63 980.7 0.4 8.4 19.5 22.6 58.8 38.6 127.4
09/05 14:00 1.6 62 3.36 -4.9 63 87 980.8 0.4 8.8 19.6 23.0 60.1 40.4 133.8

Last Refresh: 10-May-2026 06:08:00

Bureau of Meteorology